Time;durP1;ratioP1;P1;durP2;ratioP2;P2;SDS_P1;SDS_P2;PMS_P1;PMS_P2;Temp;Humidity;BMP_temperature;BMP_pressure;BME280_temperature;BME280_humidity;BME280_pressure;Samples;Min_cycle;Max_cycle;Signal;HPM_P1;HPM_P2
2022/09/24 00:38:25;;;;;;;42.03;30.98;;;;;;;;;;4452342;27;20106;-70
2022/09/24 00:40:50;;;;;;;45.15;33.63;;;;;;;;;;4422014;32;20034;-70
2022/09/24 00:43:23;;;;;;;39.03;31.35;;;;;;;;;;4407728;32;20179;-70
2022/09/24 00:45:49;;;;;;;48.40;34.42;;;;;;;;;;4420089;32;20363;-70
2022/09/24 00:48:15;;;;;;;51.37;34.70;;;;;;;;;;4419927;32;20038;-70
2022/09/24 00:50:40;;;;;;;52.95;37.08;;;;;;;;;;4408021;32;20047;-70
2022/09/24 00:53:09;;;;;;;53.83;35.70;;;;;;;;;;4406286;32;20109;-70
2022/09/24 00:55:35;;;;;;;49.90;35.20;;;;;;;;;;4420624;32;20034;-70
2022/09/24 00:58:02;;;;;;;54.15;38.58;;;;;;;;;;4421503;32;20106;-70
2022/09/24 01:00:28;;;;;;;53.80;37.55;;;;;;;;;;4406493;32;20049;-70
2022/09/24 01:02:56;;;;;;;58.67;38.10;;;;;;;;;;4419643;32;20029;-70
2022/09/24 01:05:21;;;;;;;54.85;38.60;;;;;;;;;;4421375;32;20029;-70
2022/09/24 01:07:49;;;;;;;48.58;35.38;;;;;;;;;;4405642;32;20053;-70
2022/09/24 01:10:46;;;;;;;43.92;34.10;;;;;;;;;;4412263;32;20065;-70
2022/09/24 01:13:01;;;;;;;;;;;;;;;;;;4405356;32;20061;-70
2022/09/24 01:15:35;;;;;;;48.87;36.22;;;;;;;;;;4404836;32;19997;-70
2022/09/24 01:18:03;;;;;;;55.05;38.15;;;;;;;;;;4405789;32;20030;-70
2022/09/24 01:20:41;;;;;;;54.63;38.40;;;;;;;;;;4405549;32;20075;-70
2022/09/24 01:23:09;;;;;;;54.20;38.83;;;;;;;;;;4410728;32;20080;-70
2022/09/24 01:25:53;;;;;;;61.25;41.53;;;;;;;;;;4420384;32;20038;-70
2022/09/24 01:28:35;;;;;;;72.97;43.85;;;;;;;;;;4404857;32;20022;-71
2022/09/24 01:31:28;;;;;;;64.12;42.47;;;;;;;;;;4389813;32;20073;-70
2022/09/24 01:33:56;;;;;;;51.85;37.75;;;;;;;;;;4404417;32;20018;-70
2022/09/24 01:36:22;;;;;;;62.10;42.55;;;;;;;;;;4418439;32;20025;-70
2022/09/24 01:38:50;;;;;;;57.45;42.13;;;;;;;;;;4415493;32;20254;-70
2022/09/24 01:41:16;;;;;;;66.28;45.28;;;;;;;;;;4426144;32;20041;-72
2022/09/24 01:43:42;;;;;;;65.03;43.10;;;;;;;;;;4438661;32;20072;-71
2022/09/24 01:46:07;;;;;;;60.47;41.85;;;;;;;;;;4437564;32;20026;-70
2022/09/24 01:48:36;;;;;;;57.92;42.05;;;;;;;;;;4433655;32;20055;-72
2022/09/24 01:51:04;;;;;;;57.17;40.17;;;;;;;;;;4423848;32;20083;-70
2022/09/24 01:53:33;;;;;;;64.90;43.28;;;;;;;;;;4424402;32;20424;-70
2022/09/24 01:56:04;;;;;;;66.40;45.00;;;;;;;;;;4410034;32;20026;-70
2022/09/24 01:58:34;;;;;;;68.15;44.75;;;;;;;;;;4423134;32;20063;-70
2022/09/24 02:01:05;;;;;;;66.78;44.58;;;;;;;;;;4423694;32;20067;-70
2022/09/24 02:03:33;;;;;;;75.95;46.03;;;;;;;;;;4423688;32;20089;-70
2022/09/24 02:06:07;;;;;;;63.92;44.20;;;;;;;;;;4410078;32;20038;-70
2022/09/24 02:08:36;;;;;;;54.15;40.60;;;;;;;;;;4422533;32;20022;-70
2022/09/24 02:11:06;;;;;;;61.03;41.08;;;;;;;;;;4422427;32;20060;-71
2022/09/24 02:13:38;;;;;;;59.88;40.00;;;;;;;;;;4410330;32;20026;-70
2022/09/24 02:16:04;;;;;;;57.42;39.45;;;;;;;;;;4424156;32;20359;-70
2022/09/24 02:18:32;;;;;;;53.53;38.60;;;;;;;;;;4423053;32;20419;-70
2022/09/24 02:20:58;;;;;;;60.45;41.78;;;;;;;;;;4423270;32;20061;-70
2022/09/24 02:23:25;;;;;;;61.05;43.67;;;;;;;;;;4423018;32;20075;-70
2022/09/24 02:25:54;;;;;;;58.25;40.60;;;;;;;;;;4423378;32;20029;-70
2022/09/24 02:28:19;;;;;;;57.90;41.78;;;;;;;;;;4423333;32;20395;-70
2022/09/24 02:31:10;;;;;;;52.58;39.60;;;;;;;;;;4422973;32;20148;-70
2022/09/24 02:36:23;;;;;;;62.78;42.33;;;;;;;;;;4424301;32;20045;-70
2022/09/24 02:38:48;;;;;;;65.00;43.28;;;;;;;;;;4423870;32;20041;-70
2022/09/24 02:41:14;;;;;;;67.37;43.15;;;;;;;;;;4423616;32;20048;-70
2022/09/24 02:43:39;;;;;;;;;;;;;;;;;;4423970;32;20079;-70
2022/09/24 02:46:05;;;;;;;56.35;41.47;;;;;;;;;;4408162;32;20112;-68
2022/09/24 02:48:30;;;;;;;;;;;;;;;;;;4424199;32;20030;-68
2022/09/24 02:50:55;;;;;;;68.00;45.30;;;;;;;;;;4422484;32;19988;-68
2022/09/24 02:53:20;;;;;;;69.03;45.95;;;;;;;;;;4408348;32;20527;-69
2022/09/24 02:55:45;;;;;;;64.00;44.73;;;;;;;;;;4423471;32;20057;-69
2022/09/24 02:58:11;;;;;;;59.70;42.62;;;;;;;;;;4422011;32;20503;-68
2022/09/24 03:00:36;;;;;;;71.10;46.33;;;;;;;;;;4408504;32;20072;-69
2022/09/24 03:03:01;;;;;;;;;;;;;;;;;;4408267;32;20076;-69
2022/09/24 03:05:26;;;;;;;66.82;45.33;;;;;;;;;;4422200;32;20349;-69
2022/09/24 03:07:51;;;;;;;76.57;49.13;;;;;;;;;;4423610;32;20022;-69
2022/09/24 03:10:16;;;;;;;;;;;;;;;;;;4423370;32;20026;-69
2022/09/24 03:12:42;;;;;;;83.47;51.00;;;;;;;;;;4421345;32;19933;-69
2022/09/24 03:15:08;;;;;;;79.55;52.20;;;;;;;;;;4423374;32;20386;-69
2022/09/24 03:17:33;;;;;;;81.20;51.33;;;;;;;;;;4422022;32;20025;-69
2022/09/24 03:19:58;;;;;;;62.97;46.42;;;;;;;;;;4407697;32;20052;-69
2022/09/24 03:22:23;;;;;;;72.47;49.15;;;;;;;;;;4421645;32;20026;-69
2022/09/24 03:24:48;;;;;;;72.00;47.80;;;;;;;;;;4422975;32;20027;-69
2022/09/24 03:27:13;;;;;;;61.08;44.33;;;;;;;;;;4422816;32;20022;-69
2022/09/24 03:32:22;;;;;;;74.32;49.58;;;;;;;;;;4423012;32;20059;-69
2022/09/24 03:34:48;;;;;;;71.32;48.58;;;;;;;;;;4421486;32;20105;-69
2022/09/24 03:37:13;;;;;;;74.37;50.30;;;;;;;;;;4422235;32;20075;-69
2022/09/24 03:39:38;;;;;;;66.70;48.03;;;;;;;;;;4433999;32;20171;-69
2022/09/24 03:42:03;;;;;;;87.10;53.78;;;;;;;;;;4422120;32;20087;-69
2022/09/24 03:44:28;;;;;;;73.95;50.47;;;;;;;;;;4409199;32;20045;-69
2022/09/24 03:46:54;;;;;;;78.15;50.90;;;;;;;;;;4423089;32;20142;-69
2022/09/24 03:49:19;;;;;;;79.70;50.85;;;;;;;;;;4422532;32;20030;-69
2022/09/24 03:51:44;;;;;;;78.28;50.72;;;;;;;;;;4420997;32;20056;-69
2022/09/24 03:54:10;;;;;;;87.68;55.50;;;;;;;;;;4422233;32;20018;-69
2022/09/24 03:56:35;;;;;;;82.18;52.35;;;;;;;;;;4420924;32;20078;-69
2022/09/24 03:59:00;;;;;;;74.30;51.28;;;;;;;;;;4423358;32;20018;-69
2022/09/24 04:01:27;;;;;;;82.55;53.87;;;;;;;;;;4422719;32;20084;-69
2022/09/24 04:03:53;;;;;;;74.32;51.45;;;;;;;;;;4408634;32;20071;-67
2022/09/24 04:06:18;;;;;;;72.12;50.45;;;;;;;;;;4421101;32;20021;-70
2022/09/24 04:08:43;;;;;;;81.63;53.97;;;;;;;;;;4406741;32;20029;-69
2022/09/24 04:11:08;;;;;;;80.82;51.42;;;;;;;;;;4428891;32;20094;-67
2022/09/24 04:13:33;;;;;;;90.30;56.78;;;;;;;;;;4437822;32;20097;-67
2022/09/24 04:16:02;;;;;;;83.45;53.35;;;;;;;;;;4436403;32;20055;-68
2022/09/24 04:18:27;;;;;;;87.50;53.55;;;;;;;;;;4437879;32;20178;-68
2022/09/24 04:20:56;;;;;;;80.40;53.87;;;;;;;;;;4430508;32;20018;-68
2022/09/24 04:23:21;;;;;;;79.78;54.10;;;;;;;;;;4420634;32;20023;-69
2022/09/24 04:25:46;;;;;;;85.12;57.03;;;;;;;;;;4420641;32;20052;-68
2022/09/24 04:28:12;;;;;;;;;;;;;;;;;;4407694;32;20030;-68
2022/09/24 04:30:37;;;;;;;90.97;57.00;;;;;;;;;;4421925;32;19941;-68
2022/09/24 04:33:02;;;;;;;67.25;50.35;;;;;;;;;;4420600;32;20053;-68
2022/09/24 04:35:28;;;;;;;67.40;51.10;;;;;;;;;;4421454;32;20424;-68
2022/09/24 04:37:54;;;;;;;78.53;55.12;;;;;;;;;;4429650;32;20068;-68
2022/09/24 04:40:20;;;;;;;97.37;60.45;;;;;;;;;;4437171;32;20056;-67
2022/09/24 04:42:45;;;;;;;92.57;56.72;;;;;;;;;;4436109;32;20342;-68
2022/09/24 04:45:10;;;;;;;90.00;58.33;;;;;;;;;;4436212;32;20066;-68
2022/09/24 04:47:36;;;;;;;77.32;53.03;;;;;;;;;;4420784;32;20111;-68
2022/09/24 04:50:01;;;;;;;87.62;57.92;;;;;;;;;;4421365;32;20359;-69
2022/09/24 04:52:28;;;;;;;91.95;56.30;;;;;;;;;;4418084;32;20248;-71
2022/09/24 04:54:54;;;;;;;97.53;56.30;;;;;;;;;;4403801;32;20030;-72
2022/09/24 04:57:19;;;;;;;112.65;63.55;;;;;;;;;;4421671;32;20022;-73
2022/09/24 04:59:44;;;;;;;101.70;59.22;;;;;;;;;;4422061;32;20092;-74
2022/09/24 05:02:09;;;;;;;147.65;70.85;;;;;;;;;;4428627;32;20022;-74
2022/09/24 05:04:35;;;;;;;76.70;55.50;;;;;;;;;;4407684;32;20064;-74
2022/09/24 05:07:00;;;;;;;112.90;64.80;;;;;;;;;;4405333;32;20017;-71
2022/09/24 05:09:25;;;;;;;89.85;58.13;;;;;;;;;;4420239;32;20034;-72
2022/09/24 05:11:50;;;;;;;73.45;53.40;;;;;;;;;;4423816;32;20093;-73
2022/09/24 05:14:16;;;;;;;92.00;58.42;;;;;;;;;;4419757;32;20068;-73
2022/09/24 05:16:41;;;;;;;78.70;53.83;;;;;;;;;;4421743;32;20030;-72
2022/09/24 05:19:06;;;;;;;88.90;57.83;;;;;;;;;;4422102;32;20438;-71
2022/09/24 05:21:32;;;;;;;96.82;54.90;;;;;;;;;;4418371;32;20419;-72
2022/09/24 05:23:57;;;;;;;119.18;61.90;;;;;;;;;;4436203;32;20026;-72
2022/09/24 05:29:06;;;;;;;89.72;54.15;;;;;;;;;;4423865;32;20076;-72
2022/09/24 05:31:31;;;;;;;79.03;54.38;;;;;;;;;;4421144;32;20484;-72
2022/09/24 05:33:57;;;;;;;127.68;66.72;;;;;;;;;;4421173;32;20440;-72
2022/09/24 05:36:25;;;;;;;90.93;57.40;;;;;;;;;;4407097;32;20458;-72
2022/09/24 05:38:50;;;;;;;123.13;63.25;;;;;;;;;;4413711;32;20393;-72
2022/09/24 05:41:16;;;;;;;141.02;61.95;;;;;;;;;;4421257;32;20049;-72
2022/09/24 05:43:41;;;;;;;82.57;52.47;;;;;;;;;;4421208;32;20075;-70
2022/09/24 05:46:06;;;;;;;95.18;55.00;;;;;;;;;;4436057;32;20071;-71
2022/09/24 05:48:32;;;;;;;76.55;48.58;;;;;;;;;;4411901;32;20490;-71
2022/09/24 05:50:59;;;;;;;91.03;50.00;;;;;;;;;;4435689;32;20089;-70
2022/09/24 05:53:24;;;;;;;82.93;48.95;;;;;;;;;;4435692;32;20396;-71
2022/09/24 05:55:49;;;;;;;86.43;48.95;;;;;;;;;;4435077;32;20047;-72
2022/09/24 05:58:14;;;;;;;111.82;55.78;;;;;;;;;;4435298;32;20022;-71
2022/09/24 06:00:40;;;;;;;84.05;47.80;;;;;;;;;;4436549;32;20407;-71
2022/09/24 06:03:06;;;;;;;65.72;42.85;;;;;;;;;;4435075;32;20386;-72
2022/09/24 06:05:33;;;;;;;55.00;39.58;;;;;;;;;;4436104;32;20029;-71
2022/09/24 06:07:58;;;;;;;66.37;44.33;;;;;;;;;;4434652;32;20378;-70
2022/09/24 06:10:25;;;;;;;50.58;36.75;;;;;;;;;;4436437;32;20018;-70
2022/09/24 06:12:51;;;;;;;68.03;42.70;;;;;;;;;;4433690;32;20074;-70
2022/09/24 06:15:17;;;;;;;82.53;43.97;;;;;;;;;;4420925;32;20383;-69
2022/09/24 06:17:42;;;;;;;98.47;50.12;;;;;;;;;;4421991;32;20021;-69
2022/09/24 06:20:07;;;;;;;76.12;43.42;;;;;;;;;;4422509;32;20018;-69
2022/09/24 06:22:32;;;;;;;83.30;45.38;;;;;;;;;;4423810;32;20160;-69
2022/09/24 06:24:57;;;;;;;68.62;42.55;;;;;;;;;;4424398;32;20422;-69
2022/09/24 06:27:23;;;;;;;49.50;34.65;;;;;;;;;;4422897;32;20026;-70
2022/09/24 06:29:48;;;;;;;56.30;37.88;;;;;;;;;;4414757;32;20048;-68
2022/09/24 06:32:13;;;;;;;57.00;38.58;;;;;;;;;;4423593;32;20046;-70
2022/09/24 06:34:39;;;;;;;53.25;35.00;;;;;;;;;;4422649;32;20029;-69
2022/09/24 06:37:04;;;;;;;43.42;29.02;;;;;;;;;;4408147;32;20089;-70
2022/09/24 06:39:29;;;;;;;50.53;32.67;;;;;;;;;;4418506;32;20029;-70
2022/09/24 06:41:55;;;;;;;39.03;27.67;;;;;;;;;;4422555;32;20022;-70
2022/09/24 06:44:20;;;;;;;42.75;28.33;;;;;;;;;;4422020;32;20089;-68
2022/09/24 06:46:45;;;;;;;51.05;32.13;;;;;;;;;;4423651;32;20033;-70
2022/09/24 06:49:11;;;;;;;36.80;26.80;;;;;;;;;;4422081;32;20022;-71
2022/09/24 06:51:36;;;;;;;31.08;21.48;;;;;;;;;;4420498;32;20254;-70
2022/09/24 06:54:02;;;;;;;27.67;19.75;;;;;;;;;;4422620;32;20452;-69
2022/09/24 06:56:28;;;;;;;26.48;17.92;;;;;;;;;;4421974;32;20098;-69
2022/09/24 06:58:53;;;;;;;21.83;13.40;;;;;;;;;;4423404;32;20050;-70
2022/09/24 07:01:18;;;;;;;22.37;10.40;;;;;;;;;;4421539;32;20026;-70
2022/09/24 07:03:43;;;;;;;21.73;9.07;;;;;;;;;;4422052;32;20040;-70
2022/09/24 07:06:09;;;;;;;16.42;6.80;;;;;;;;;;4422327;32;20050;-70
2022/09/24 07:08:34;;;;;;;16.77;6.70;;;;;;;;;;4421339;32;20462;-70
2022/09/24 07:10:59;;;;;;;15.70;6.10;;;;;;;;;;4421247;32;20409;-70
2022/09/24 07:13:25;;;;;;;15.20;6.55;;;;;;;;;;4423445;32;20096;-70
2022/09/24 07:15:51;;;;;;;12.02;6.65;;;;;;;;;;4422961;32;20420;-70
2022/09/24 07:18:17;;;;;;;14.85;5.47;;;;;;;;;;4421524;32;20026;-70
2022/09/24 07:20:42;;;;;;;12.48;5.22;;;;;;;;;;4422686;32;20030;-69
2022/09/24 07:23:08;;;;;;;14.63;5.30;;;;;;;;;;4415336;32;20385;-70
2022/09/24 07:25:34;;;;;;;14.48;4.87;;;;;;;;;;4421397;32;20093;-70
2022/09/24 07:28:01;;;;;;;16.92;5.07;;;;;;;;;;4421510;32;20018;-70
2022/09/24 07:30:27;;;;;;;17.08;5.15;;;;;;;;;;4420813;32;20424;-70
2022/09/24 07:32:55;;;;;;;18.83;5.53;;;;;;;;;;4423492;32;20060;-70
2022/09/24 07:35:21;;;;;;;21.83;6.20;;;;;;;;;;4422919;32;20026;-70
2022/09/24 07:37:46;;;;;;;15.95;4.57;;;;;;;;;;4409185;32;20439;-70
2022/09/24 07:40:12;;;;;;;21.92;5.03;;;;;;;;;;4437045;32;20030;-70
2022/09/24 07:42:45;;;;;;;17.35;4.72;;;;;;;;;;4438222;32;20406;-70
2022/09/24 07:45:10;;;;;;;18.33;4.65;;;;;;;;;;4422737;32;20401;-70
2022/09/24 07:47:36;;;;;;;19.75;5.12;;;;;;;;;;4422429;32;20026;-70
2022/09/24 07:50:01;;;;;;;19.48;5.62;;;;;;;;;;4422128;32;20085;-71
2022/09/24 07:52:26;;;;;;;20.98;5.15;;;;;;;;;;4436998;32;20324;-70
2022/09/24 07:54:53;;;;;;;17.98;6.30;;;;;;;;;;4429545;32;20458;-70
2022/09/24 07:57:18;;;;;;;15.93;6.30;;;;;;;;;;4426746;32;20038;-70
2022/09/24 07:59:43;;;;;;;21.95;6.75;;;;;;;;;;4437749;32;20078;-70
2022/09/24 08:02:15;;;;;;;19.10;7.20;;;;;;;;;;4436264;32;20088;-69
2022/09/24 08:04:41;;;;;;;10.98;5.43;;;;;;;;;;4437896;32;20034;-70
2022/09/24 08:07:06;;;;;;;22.50;7.35;;;;;;;;;;4434532;32;20080;-70
2022/09/24 08:09:31;;;;;;;14.52;4.65;;;;;;;;;;4436086;32;20026;-70
2022/09/24 08:11:57;;;;;;;17.75;4.45;;;;;;;;;;4423540;32;20057;-70
2022/09/24 08:14:22;;;;;;;14.65;3.75;;;;;;;;;;4436274;32;20022;-70
2022/09/24 08:16:48;;;;;;;18.30;4.80;;;;;;;;;;4436692;32;20415;-70
2022/09/24 08:19:13;;;;;;;23.17;4.03;;;;;;;;;;4423378;32;20419;-70
2022/09/24 08:21:38;;;;;;;17.87;4.12;;;;;;;;;;4437385;32;20122;-69
2022/09/24 08:24:03;;;;;;;19.67;4.07;;;;;;;;;;4435913;32;20416;-70
2022/09/24 08:26:29;;;;;;;17.45;4.12;;;;;;;;;;4428737;32;20019;-70
2022/09/24 08:28:54;;;;;;;17.70;3.58;;;;;;;;;;4434927;32;20022;-70
2022/09/24 08:31:19;;;;;;;22.52;4.93;;;;;;;;;;4416558;32;20029;-71
2022/09/24 08:33:49;;;;;;;15.88;3.47;;;;;;;;;;4436460;32;20038;-69
2022/09/24 08:36:14;;;;;;;9.98;3.25;;;;;;;;;;4435576;32;20029;-70
2022/09/24 08:38:39;;;;;;;14.10;3.72;;;;;;;;;;4428632;32;20489;-70
2022/09/24 08:41:05;;;;;;;18.73;4.47;;;;;;;;;;4429399;32;20403;-69
2022/09/24 08:43:36;;;;;;;14.10;3.55;;;;;;;;;;4437304;32;20030;-69
2022/09/24 08:48:52;;;;;;;21.42;4.25;;;;;;;;;;4427938;32;20044;-69
2022/09/24 08:51:19;;;;;;;16.73;3.70;;;;;;;;;;4436707;32;20049;-70
2022/09/24 08:53:53;;;;;;;14.45;3.40;;;;;;;;;;4427697;32;20094;-70
2022/09/24 08:56:23;;;;;;;16.75;4.30;;;;;;;;;;4437441;32;20069;-69
2022/09/24 08:59:10;;;;;;;17.10;3.50;;;;;;;;;;4435708;32;20025;-69
2022/09/24 09:01:44;;;;;;;24.02;4.37;;;;;;;;;;4435458;32;20110;-70
2022/09/24 09:04:09;;;;;;;27.90;4.37;;;;;;;;;;4421444;32;20082;-70
2022/09/24 09:06:35;;;;;;;14.68;4.05;;;;;;;;;;4422234;32;20045;-69
2022/09/24 09:09:18;;;;;;;23.05;4.97;;;;;;;;;;4432323;32;20324;-70
2022/09/24 09:11:45;;;;;;;13.88;3.97;;;;;;;;;;4407741;32;20018;-70
2022/09/24 09:14:11;;;;;;;16.23;3.87;;;;;;;;;;4423964;32;20025;-70
2022/09/24 09:16:45;;;;;;;14.98;4.72;;;;;;;;;;4440287;32;20037;-70
2022/09/24 09:19:12;;;;;;;12.52;4.15;;;;;;;;;;4424093;32;20033;-71
2022/09/24 09:21:42;;;;;;;19.23;4.37;;;;;;;;;;4435644;32;20061;-69
2022/09/24 09:24:16;;;;;;;18.62;4.45;;;;;;;;;;4435111;32;20060;-69
2022/09/24 09:26:45;;;;;;;16.33;3.53;;;;;;;;;;4435488;32;20026;-69
2022/09/24 09:29:10;;;;;;;23.62;4.80;;;;;;;;;;4435761;32;20074;-69
2022/09/24 09:31:54;;;;;;;25.58;3.67;;;;;;;;;;4421556;32;20034;-69
2022/09/24 09:34:29;;;;;;;17.75;4.07;;;;;;;;;;4436860;32;20097;-69
2022/09/24 09:37:11;;;;;;;16.90;4.00;;;;;;;;;;4421307;32;20347;-69
2022/09/24 09:39:44;;;;;;;22.62;4.85;;;;;;;;;;4420808;32;20072;-69
2022/09/24 09:42:22;;;;;;;20.00;4.28;;;;;;;;;;4406033;32;20362;-69
2022/09/24 09:44:47;;;;;;;17.15;3.37;;;;;;;;;;4420108;32;20058;-69
2022/09/24 09:47:23;;;;;;;17.70;3.95;;;;;;;;;;4406874;32;20399;-69
2022/09/24 09:49:50;;;;;;;15.27;4.50;;;;;;;;;;4420026;32;20097;-69
2022/09/24 09:52:18;;;;;;;21.10;4.43;;;;;;;;;;4421627;32;20120;-69
2022/09/24 09:54:44;;;;;;;14.57;3.72;;;;;;;;;;4437188;32;20073;-69
2022/09/24 09:57:16;;;;;;;16.27;3.37;;;;;;;;;;4424002;32;20025;-69
2022/09/24 09:59:44;;;;;;;12.60;3.58;;;;;;;;;;4437878;32;20060;-70
2022/09/24 10:02:14;;;;;;;21.30;4.32;;;;;;;;;;4438031;32;20076;-70
2022/09/24 10:04:40;;;;;;;13.18;3.37;;;;;;;;;;4432433;32;20081;-69
2022/09/24 10:07:10;;;;;;;19.70;3.87;;;;;;;;;;4426551;32;20374;-68
2022/09/24 10:09:36;;;;;;;16.87;4.05;;;;;;;;;;4424466;32;20340;-68
2022/09/24 10:12:54;;;;;;;17.10;3.87;;;;;;;;;;4448967;32;20106;-69
2022/09/24 10:15:20;;;;;;;16.00;3.47;;;;;;;;;;4429408;32;20037;-69
2022/09/24 10:17:46;;;;;;;19.42;3.60;;;;;;;;;;4427945;32;20033;-69
2022/09/24 10:20:18;;;;;;;13.25;3.22;;;;;;;;;;4424600;32;20034;-69
2022/09/24 10:22:49;;;;;;;19.23;3.40;;;;;;;;;;4423581;32;20103;-69
2022/09/24 10:25:16;;;;;;;14.07;3.70;;;;;;;;;;4423179;32;20037;-68
2022/09/24 10:27:42;;;;;;;13.50;3.17;;;;;;;;;;4423740;32;20411;-68
2022/09/24 10:30:33;;;;;;;11.35;3.70;;;;;;;;;;4425114;32;20057;-69
2022/09/24 10:32:59;;;;;;;20.88;3.80;;;;;;;;;;4423950;32;20459;-69
2022/09/24 10:35:28;;;;;;;19.77;4.12;;;;;;;;;;4432893;32;20165;-68
2022/09/24 10:37:54;;;;;;;18.77;4.12;;;;;;;;;;4428886;32;20066;-68
2022/09/24 10:40:23;;;;;;;13.07;3.53;;;;;;;;;;4419030;32;20489;-68
2022/09/24 10:42:56;;;;;;;15.27;3.20;;;;;;;;;;4414715;32;20031;-69
2022/09/24 10:45:22;;;;;;;8.00;2.72;;;;;;;;;;4403049;32;20466;-68
2022/09/24 10:47:54;;;;;;;13.98;3.33;;;;;;;;;;4390822;32;20026;-68
2022/09/24 10:50:29;;;;;;;14.82;3.67;;;;;;;;;;4402153;32;20026;-68
2022/09/24 10:52:57;;;;;;;14.50;4.43;;;;;;;;;;4404858;32;20038;-68
2022/09/24 10:55:34;;;;;;;16.40;4.10;;;;;;;;;;4403106;32;20443;-69
2022/09/24 10:58:15;;;;;;;15.05;3.42;;;;;;;;;;4404018;32;20034;-68
2022/09/24 11:00:59;;;;;;;16.73;3.10;;;;;;;;;;4389013;32;20030;-66
2022/09/24 11:03:41;;;;;;;17.62;3.55;;;;;;;;;;4402843;32;20089;-68
2022/09/24 11:06:06;;;;;;;13.02;3.85;;;;;;;;;;4387855;32;20096;-68
2022/09/24 11:08:45;;;;;;;14.07;3.05;;;;;;;;;;4402899;32;20401;-67
2022/09/24 11:11:11;;;;;;;13.15;3.70;;;;;;;;;;4388195;32;20038;-68
2022/09/24 11:13:47;;;;;;;12.73;3.00;;;;;;;;;;4402883;32;20121;-70
2022/09/24 11:16:15;;;;;;;21.20;3.95;;;;;;;;;;4401246;32;20026;-67
2022/09/24 11:18:57;;;;;;;14.32;3.12;;;;;;;;;;4407912;32;20381;-67
2022/09/24 11:21:38;;;;;;;13.35;3.00;;;;;;;;;;4417163;32;20106;-68
2022/09/24 11:24:10;;;;;;;13.13;2.67;;;;;;;;;;4407794;32;20057;-67
2022/09/24 11:26:38;;;;;;;18.90;3.80;;;;;;;;;;4394054;32;20026;-68
2022/09/24 11:29:18;;;;;;;10.27;2.90;;;;;;;;;;4388184;32;20043;-67
2022/09/24 11:31:43;;;;;;;12.00;3.53;;;;;;;;;;4407107;32;20352;-68
2022/09/24 11:34:26;;;;;;;15.57;3.05;;;;;;;;;;4408068;32;20050;-68
2022/09/24 11:37:09;;;;;;;10.15;2.50;;;;;;;;;;4392404;32;20438;-68
2022/09/24 11:39:37;;;;;;;11.75;3.10;;;;;;;;;;4406700;32;20034;-68
2022/09/24 11:42:05;;;;;;;9.55;3.03;;;;;;;;;;4407787;32;20056;-68
2022/09/24 11:44:46;;;;;;;12.18;3.15;;;;;;;;;;4406674;32;20026;-68
2022/09/24 11:47:18;;;;;;;15.35;4.00;;;;;;;;;;4392037;32;20038;-67
2022/09/24 11:49:58;;;;;;;14.65;2.97;;;;;;;;;;4407721;32;20376;-67
2022/09/24 11:52:30;;;;;;;10.70;2.28;;;;;;;;;;4407823;32;20397;-67
2022/09/24 11:55:00;;;;;;;11.30;3.10;;;;;;;;;;4397744;32;20462;-68
2022/09/24 11:57:35;;;;;;;10.27;2.15;;;;;;;;;;4393503;32;20089;-67
2022/09/24 12:00:16;;;;;;;15.23;3.00;;;;;;;;;;4391513;32;20503;-69
2022/09/24 12:02:41;;;;;;;14.07;2.80;;;;;;;;;;4391712;32;20061;-66
2022/09/24 12:05:22;;;;;;;12.98;2.85;;;;;;;;;;4396148;32;20034;-68
2022/09/24 12:08:13;;;;;;;13.07;2.47;;;;;;;;;;4406152;32;20412;-67
2022/09/24 12:10:44;;;;;;;11.70;2.70;;;;;;;;;;4359167;32;20055;-67
2022/09/24 12:13:19;;;;;;;15.43;2.53;;;;;;;;;;4391732;32;20019;-67
2022/09/24 12:15:47;;;;;;;11.63;2.75;;;;;;;;;;4391160;32;20031;-68
2022/09/24 12:18:22;;;;;;;10.25;2.70;;;;;;;;;;4391521;32;20318;-67
2022/09/24 12:20:53;;;;;;;12.98;2.33;;;;;;;;;;4393144;32;20330;-68
2022/09/24 12:23:22;;;;;;;11.38;3.05;;;;;;;;;;4397795;32;20049;-68
2022/09/24 12:25:50;;;;;;;16.23;3.20;;;;;;;;;;4404509;32;20017;-67
2022/09/24 12:32:53;;;;;;;10.60;2.70;;;;;;;;;;4406637;32;20027;-67
2022/09/24 12:33:56;;;;;;;12.02;3.17;;;;;;;;;;4407461;32;20096;-68
2022/09/24 12:36:37;;;;;;;15.50;2.72;;;;;;;;;;4392957;32;20317;-68
2022/09/24 12:39:08;;;;;;;9.35;2.42;;;;;;;;;;4406178;32;20372;-67
2022/09/24 12:41:35;;;;;;;6.28;1.70;;;;;;;;;;4391683;32;20431;-69
2022/09/24 12:44:11;;;;;;;11.20;2.50;;;;;;;;;;4390023;32;20015;-67
2022/09/24 12:46:40;;;;;;;8.93;2.05;;;;;;;;;;4389927;32;20011;-67
2022/09/24 12:49:17;;;;;;;13.70;2.95;;;;;;;;;;4402234;32;20023;-67
2022/09/24 12:51:42;;;;;;;9.32;2.97;;;;;;;;;;4407582;32;20030;-68
2022/09/24 12:54:16;;;;;;;7.78;2.30;;;;;;;;;;4406250;32;20069;-68
2022/09/24 12:56:43;;;;;;;8.85;2.10;;;;;;;;;;4405189;32;20106;-66
2022/09/24 12:59:22;;;;;;;12.00;2.78;;;;;;;;;;4405289;32;20388;-66
2022/09/24 13:01:47;;;;;;;12.40;2.25;;;;;;;;;;4405376;32;20071;-67
2022/09/24 13:04:13;;;;;;;12.00;2.45;;;;;;;;;;4378368;32;20102;-66
2022/09/24 13:06:39;;;;;;;8.95;2.53;;;;;;;;;;4376050;32;20072;-67
2022/09/24 13:09:23;;;;;;;9.73;2.95;;;;;;;;;;4390220;32;20027;-67
2022/09/24 13:11:48;;;;;;;8.63;2.22;;;;;;;;;;4389990;32;20060;-67
2022/09/24 13:14:14;;;;;;;7.55;2.42;;;;;;;;;;4389627;32;20094;-67
2022/09/24 13:16:40;;;;;;;14.65;2.50;;;;;;;;;;4389273;32;20026;-66
2022/09/24 13:19:39;;;;;;;6.55;2.08;;;;;;;;;;4376931;32;20031;-67
2022/09/24 13:22:06;;;;;;;14.05;2.53;;;;;;;;;;4356796;32;20022;-67
2022/09/24 13:24:43;;;;;;;11.43;2.95;;;;;;;;;;4376393;32;20019;-67
2022/09/24 13:27:29;;;;;;;10.60;2.42;;;;;;;;;;4375818;32;20019;-67
2022/09/24 13:30:14;;;;;;;8.27;2.90;;;;;;;;;;4382615;32;20027;-67
2022/09/24 13:32:48;;;;;;;8.05;2.20;;;;;;;;;;4396911;32;20022;-67
2022/09/24 13:35:16;;;;;;;11.00;2.55;;;;;;;;;;4390406;32;20027;-67
2022/09/24 13:37:47;;;;;;;14.35;2.80;;;;;;;;;;4390025;32;20049;-67
2022/09/24 13:40:18;;;;;;;8.75;2.45;;;;;;;;;;4390259;32;20084;-67
2022/09/24 13:43:02;;;;;;;13.52;2.53;;;;;;;;;;4397799;32;20446;-66
2022/09/24 13:45:28;;;;;;;12.25;3.03;;;;;;;;;;4390940;32;20057;-67
2022/09/24 13:47:56;;;;;;;8.63;2.12;;;;;;;;;;4397566;32;20026;-68
2022/09/24 13:50:26;;;;;;;11.60;2.72;;;;;;;;;;4404606;32;20046;-67
2022/09/24 13:52:51;;;;;;;11.90;2.28;;;;;;;;;;4404964;32;20059;-67
2022/09/24 13:55:17;;;;;;;10.98;2.10;;;;;;;;;;4402064;32;20023;-67
2022/09/24 13:57:43;;;;;;;11.77;2.40;;;;;;;;;;4393851;32;20104;-65
2022/09/24 14:00:14;;;;;;;10.60;2.20;;;;;;;;;;4392644;32;20018;-67
2022/09/24 14:02:42;;;;;;;12.55;2.62;;;;;;;;;;4395209;32;20481;-67
2022/09/24 14:05:13;;;;;;;12.85;3.05;;;;;;;;;;4395863;32;20097;-66
2022/09/24 14:07:39;;;;;;;7.45;2.15;;;;;;;;;;4399873;32;20379;-68
2022/09/24 14:10:06;;;;;;;12.18;3.12;;;;;;;;;;4402087;32;20085;-67
2022/09/24 14:12:31;;;;;;;11.80;2.65;;;;;;;;;;4398869;32;20065;-66
2022/09/24 14:14:57;;;;;;;7.62;2.08;;;;;;;;;;4409771;32;20038;-67
2022/09/24 14:17:22;;;;;;;13.73;3.47;;;;;;;;;;4403387;32;20421;-66
2022/09/24 14:19:52;;;;;;;12.48;1.95;;;;;;;;;;4405260;32;20318;-66
2022/09/24 14:22:29;;;;;;;8.77;2.03;;;;;;;;;;4377486;32;20400;-66
2022/09/24 14:24:57;;;;;;;8.50;2.12;;;;;;;;;;4392266;32;20364;-67
2022/09/24 14:27:23;;;;;;;15.98;2.60;;;;;;;;;;4396024;32;20065;-70
2022/09/24 14:29:48;;;;;;;8.27;2.00;;;;;;;;;;4396442;32;20050;-69
2022/09/24 14:32:21;;;;;;;11.48;2.15;;;;;;;;;;4385519;32;20023;-69
2022/09/24 14:34:50;;;;;;;14.18;2.72;;;;;;;;;;4398069;32;20084;-68
2022/09/24 14:37:16;;;;;;;9.10;2.45;;;;;;;;;;4402404;32;20416;-68
2022/09/24 14:39:42;;;;;;;9.85;2.22;;;;;;;;;;4382112;32;20440;-68
2022/09/24 14:42:34;;;;;;;6.50;1.98;;;;;;;;;;4395717;32;20015;-68
2022/09/24 14:45:03;;;;;;;8.95;1.83;;;;;;;;;;4378159;32;20027;-67
2022/09/24 14:47:30;;;;;;;16.15;2.33;;;;;;;;;;4410434;32;20030;-67
2022/09/24 14:49:55;;;;;;;10.70;2.10;;;;;;;;;;4396063;32;20069;-67
2022/09/24 14:52:30;;;;;;;12.95;2.50;;;;;;;;;;4407106;32;20035;-70
2022/09/24 14:55:10;;;;;;;11.25;2.00;;;;;;;;;;4409919;32;20060;-69
2022/09/24 14:57:36;;;;;;;9.38;2.25;;;;;;;;;;4393347;32;20027;-71
2022/09/24 15:00:17;;;;;;;7.43;2.20;;;;;;;;;;4399433;32;20035;-69
2022/09/24 15:02:43;;;;;;;9.07;1.83;;;;;;;;;;4411717;32;20029;-68
2022/09/24 15:05:08;;;;;;;11.95;2.37;;;;;;;;;;4395631;32;20348;-67
2022/09/24 15:07:34;;;;;;;7.93;1.83;;;;;;;;;;4411090;32;20076;-66
2022/09/24 15:10:00;;;;;;;11.25;2.60;;;;;;;;;;4407780;32;20023;-67
2022/09/24 15:12:30;;;;;;;7.25;2.03;;;;;;;;;;4393333;32;20352;-68
2022/09/24 15:14:59;;;;;;;8.88;2.08;;;;;;;;;;4407425;32;20048;-67
2022/09/24 15:17:29;;;;;;;13.98;2.47;;;;;;;;;;4395088;32;20018;-67
2022/09/24 15:19:56;;;;;;;10.15;2.47;;;;;;;;;;4393315;32;20396;-68
2022/09/24 15:22:24;;;;;;;7.05;1.92;;;;;;;;;;4394093;32;20019;-68
2022/09/24 15:24:49;;;;;;;9.23;2.45;;;;;;;;;;4408649;32;20068;-66
2022/09/24 15:27:17;;;;;;;12.30;2.95;;;;;;;;;;4409143;32;20027;-68
2022/09/24 15:29:42;;;;;;;9.07;1.90;;;;;;;;;;4407064;32;20030;-70